sensor_id;sensor_type;location;lat;lon;timestamp;P1;durP1;ratioP1;P2;durP2;ratioP2
65665;SDS011;52365;47.464;18.976;2023-05-19T00:00:21;3.78;;;2.40;;
65665;SDS011;52365;47.464;18.976;2023-05-19T00:00:44;3.87;;;2.50;;
65665;SDS011;52365;47.464;18.976;2023-05-19T00:01:05;3.97;;;2.67;;
65665;SDS011;52365;47.464;18.976;2023-05-19T00:01:27;4.30;;;2.65;;
65665;SDS011;52365;47.464;18.976;2023-05-19T00:01:49;3.30;;;2.55;;
65665;SDS011;52365;47.464;18.976;2023-05-19T00:02:10;3.35;;;2.35;;
65665;SDS011;52365;47.464;18.976;2023-05-19T00:02:31;3.75;;;2.30;;
65665;SDS011;52365;47.464;18.976;2023-05-19T00:02:53;3.40;;;2.40;;
65665;SDS011;52365;47.464;18.976;2023-05-19T00:03:15;3.47;;;2.35;;
65665;SDS011;52365;47.464;18.976;2023-05-19T00:03:51;3.53;;;2.42;;
65665;SDS011;52365;47.464;18.976;2023-05-19T00:04:13;4.55;;;2.45;;
65665;SDS011;52365;47.464;18.976;2023-05-19T00:04:35;3.97;;;2.50;;
65665;SDS011;52365;47.464;18.976;2023-05-19T00:04:52;4.75;;;2.60;;
65665;SDS011;52365;47.464;18.976;2023-05-19T00:05:13;4.62;;;2.58;;
65665;SDS011;52365;47.464;18.976;2023-05-19T00:05:33;5.50;;;2.60;;
65665;SDS011;52365;47.464;18.976;2023-05-19T00:05:56;3.72;;;2.42;;
65665;SDS011;52365;47.464;18.976;2023-05-19T00:06:22;4.00;;;2.50;;
65665;SDS011;52365;47.464;18.976;2023-05-19T00:06:49;3.50;;;2.50;;
65665;SDS011;52365;47.464;18.976;2023-05-19T00:07:11;2.97;;;2.58;;
65665;SDS011;52365;47.464;18.976;2023-05-19T00:07:36;4.15;;;2.62;;
65665;SDS011;52365;47.464;18.976;2023-05-19T00:07:58;4.82;;;2.72;;
65665;SDS011;52365;47.464;18.976;2023-05-19T00:08:22;4.37;;;2.60;;
65665;SDS011;52365;47.464;18.976;2023-05-19T00:08:44;4.18;;;2.55;;
65665;SDS011;52365;47.464;18.976;2023-05-19T00:09:06;3.97;;;2.33;;
65665;SDS011;52365;47.464;18.976;2023-05-19T00:09:29;3.70;;;2.50;;
65665;SDS011;52365;47.464;18.976;2023-05-19T00:09:46;4.20;;;2.70;;
65665;SDS011;52365;47.464;18.976;2023-05-19T00:10:02;4.22;;;2.90;;
65665;SDS011;52365;47.464;18.976;2023-05-19T00:10:24;4.03;;;2.80;;
65665;SDS011;52365;47.464;18.976;2023-05-19T00:10:49;3.85;;;2.75;;
65665;SDS011;52365;47.464;18.976;2023-05-19T00:11:11;5.40;;;2.70;;
65665;SDS011;52365;47.464;18.976;2023-05-19T00:11:32;4.93;;;2.67;;
65665;SDS011;52365;47.464;18.976;2023-05-19T00:11:55;4.03;;;2.85;;
65665;SDS011;52365;47.464;18.976;2023-05-19T00:12:17;4.55;;;2.70;;
65665;SDS011;52365;47.464;18.976;2023-05-19T00:12:38;5.10;;;3.05;;
65665;SDS011;52365;47.464;18.976;2023-05-19T00:12:59;4.00;;;3.00;;
65665;SDS011;52365;47.464;18.976;2023-05-19T00:13:20;4.37;;;2.70;;
65665;SDS011;52365;47.464;18.976;2023-05-19T00:13:43;4.87;;;2.65;;
65665;SDS011;52365;47.464;18.976;2023-05-19T00:14:08;5.82;;;2.83;;
65665;SDS011;52365;47.464;18.976;2023-05-19T00:14:29;4.28;;;2.80;;
65665;SDS011;52365;47.464;18.976;2023-05-19T00:14:51;3.65;;;2.72;;
65665;SDS011;52365;47.464;18.976;2023-05-19T00:15:12;3.53;;;2.70;;
65665;SDS011;52365;47.464;18.976;2023-05-19T00:15:34;4.43;;;2.50;;
65665;SDS011;52365;47.464;18.976;2023-05-19T00:15:55;5.28;;;2.45;;
65665;SDS011;52365;47.464;18.976;2023-05-19T00:16:16;4.85;;;2.60;;
65665;SDS011;52365;47.464;18.976;2023-05-19T00:16:37;5.68;;;2.85;;
65665;SDS011;52365;47.464;18.976;2023-05-19T00:16:59;5.37;;;2.97;;
65665;SDS011;52365;47.464;18.976;2023-05-19T00:17:21;4.72;;;2.80;;
65665;SDS011;52365;47.464;18.976;2023-05-19T00:17:43;3.60;;;2.60;;
65665;SDS011;52365;47.464;18.976;2023-05-19T00:18:04;3.80;;;2.45;;
65665;SDS011;52365;47.464;18.976;2023-05-19T00:18:25;4.87;;;2.75;;
65665;SDS011;52365;47.464;18.976;2023-05-19T00:18:49;3.60;;;2.83;;
65665;SDS011;52365;47.464;18.976;2023-05-19T00:19:11;3.60;;;2.47;;
65665;SDS011;52365;47.464;18.976;2023-05-19T00:19:32;4.28;;;2.60;;
65665;SDS011;52365;47.464;18.976;2023-05-19T00:19:53;5.20;;;2.70;;
65665;SDS011;52365;47.464;18.976;2023-05-19T00:20:14;4.97;;;2.67;;
65665;SDS011;52365;47.464;18.976;2023-05-19T00:20:35;3.62;;;2.50;;
65665;SDS011;52365;47.464;18.976;2023-05-19T00:20:57;3.85;;;2.60;;
65665;SDS011;52365;47.464;18.976;2023-05-19T00:21:18;3.70;;;2.50;;
65665;SDS011;52365;47.464;18.976;2023-05-19T00:21:40;3.72;;;2.47;;
65665;SDS011;52365;47.464;18.976;2023-05-19T00:22:01;3.78;;;2.65;;
65665;SDS011;52365;47.464;18.976;2023-05-19T00:22:22;4.68;;;2.60;;
65665;SDS011;52365;47.464;18.976;2023-05-19T00:22:43;4.93;;;2.65;;
65665;SDS011;52365;47.464;18.976;2023-05-19T00:23:04;4.37;;;2.70;;
65665;SDS011;52365;47.464;18.976;2023-05-19T00:23:25;3.85;;;2.50;;
65665;SDS011;52365;47.464;18.976;2023-05-19T00:23:46;4.85;;;2.72;;
65665;SDS011;52365;47.464;18.976;2023-05-19T00:24:07;5.75;;;2.97;;
65665;SDS011;52365;47.464;18.976;2023-05-19T00:24:23;5.18;;;2.87;;
65665;SDS011;52365;47.464;18.976;2023-05-19T00:24:44;4.15;;;2.78;;
65665;SDS011;52365;47.464;18.976;2023-05-19T00:25:05;3.67;;;2.67;;
65665;SDS011;52365;47.464;18.976;2023-05-19T00:25:22;3.90;;;2.65;;
65665;SDS011;52365;47.464;18.976;2023-05-19T00:25:43;3.40;;;2.53;;
65665;SDS011;52365;47.464;18.976;2023-05-19T00:26:04;3.58;;;2.55;;
65665;SDS011;52365;47.464;18.976;2023-05-19T00:26:25;4.93;;;2.70;;
65665;SDS011;52365;47.464;18.976;2023-05-19T00:26:47;6.70;;;2.60;;
65665;SDS011;52365;47.464;18.976;2023-05-19T00:27:08;6.10;;;2.72;;
65665;SDS011;52365;47.464;18.976;2023-05-19T00:27:29;4.82;;;2.70;;
65665;SDS011;52365;47.464;18.976;2023-05-19T00:27:50;4.77;;;2.60;;
65665;SDS011;52365;47.464;18.976;2023-05-19T00:28:11;5.15;;;3.00;;
65665;SDS011;52365;47.464;18.976;2023-05-19T00:28:32;3.80;;;2.72;;
65665;SDS011;52365;47.464;18.976;2023-05-19T00:28:53;4.22;;;2.90;;
65665;SDS011;52365;47.464;18.976;2023-05-19T00:29:14;5.93;;;2.92;;
65665;SDS011;52365;47.464;18.976;2023-05-19T00:29:38;4.78;;;3.00;;
65665;SDS011;52365;47.464;18.976;2023-05-19T00:29:59;5.00;;;3.37;;
65665;SDS011;52365;47.464;18.976;2023-05-19T00:30:20;4.75;;;3.42;;
65665;SDS011;52365;47.464;18.976;2023-05-19T00:30:42;5.10;;;3.42;;
65665;SDS011;52365;47.464;18.976;2023-05-19T00:31:03;5.47;;;3.40;;
65665;SDS011;52365;47.464;18.976;2023-05-19T00:31:25;5.10;;;3.33;;
65665;SDS011;52365;47.464;18.976;2023-05-19T00:31:46;4.72;;;3.30;;
65665;SDS011;52365;47.464;18.976;2023-05-19T00:32:02;4.87;;;3.40;;
65665;SDS011;52365;47.464;18.976;2023-05-19T00:32:23;4.40;;;3.20;;
65665;SDS011;52365;47.464;18.976;2023-05-19T00:32:44;4.35;;;3.30;;
65665;SDS011;52365;47.464;18.976;2023-05-19T00:33:05;4.37;;;3.45;;
65665;SDS011;52365;47.464;18.976;2023-05-19T00:33:26;6.35;;;3.58;;
65665;SDS011;52365;47.464;18.976;2023-05-19T00:33:47;5.37;;;3.30;;
65665;SDS011;52365;47.464;18.976;2023-05-19T00:34:08;5.07;;;3.20;;
65665;SDS011;52365;47.464;18.976;2023-05-19T00:34:29;6.20;;;3.45;;
65665;SDS011;52365;47.464;18.976;2023-05-19T00:34:50;6.10;;;3.33;;
65665;SDS011;52365;47.464;18.976;2023-05-19T00:35:11;6.18;;;3.03;;
65665;SDS011;52365;47.464;18.976;2023-05-19T00:35:32;4.70;;;3.10;;
65665;SDS011;52365;47.464;18.976;2023-05-19T00:35:53;4.53;;;3.28;;
65665;SDS011;52365;47.464;18.976;2023-05-19T00:36:14;5.28;;;3.47;;
65665;SDS011;52365;47.464;18.976;2023-05-19T00:36:35;6.85;;;3.35;;
65665;SDS011;52365;47.464;18.976;2023-05-19T00:36:56;6.85;;;3.42;;
65665;SDS011;52365;47.464;18.976;2023-05-19T00:37:12;5.45;;;3.30;;
65665;SDS011;52365;47.464;18.976;2023-05-19T00:37:33;4.72;;;3.30;;
65665;SDS011;52365;47.464;18.976;2023-05-19T00:37:54;5.22;;;3.30;;
65665;SDS011;52365;47.464;18.976;2023-05-19T00:38:15;4.65;;;3.12;;
65665;SDS011;52365;47.464;18.976;2023-05-19T00:38:37;3.90;;;3.12;;
65665;SDS011;52365;47.464;18.976;2023-05-19T00:38:58;4.10;;;2.87;;
65665;SDS011;52365;47.464;18.976;2023-05-19T00:39:14;5.12;;;2.97;;
65665;SDS011;52365;47.464;18.976;2023-05-19T00:39:35;5.55;;;3.40;;
65665;SDS011;52365;47.464;18.976;2023-05-19T00:39:56;3.85;;;3.00;;
65665;SDS011;52365;47.464;18.976;2023-05-19T00:40:18;6.10;;;3.22;;
65665;SDS011;52365;47.464;18.976;2023-05-19T00:40:39;5.37;;;3.40;;
65665;SDS011;52365;47.464;18.976;2023-05-19T00:41:01;5.87;;;3.20;;
65665;SDS011;52365;47.464;18.976;2023-05-19T00:41:23;4.72;;;3.03;;
65665;SDS011;52365;47.464;18.976;2023-05-19T00:41:44;4.53;;;3.20;;
65665;SDS011;52365;47.464;18.976;2023-05-19T00:42:05;4.78;;;3.30;;
65665;SDS011;52365;47.464;18.976;2023-05-19T00:42:26;5.87;;;3.47;;
65665;SDS011;52365;47.464;18.976;2023-05-19T00:42:47;5.43;;;3.42;;
65665;SDS011;52365;47.464;18.976;2023-05-19T00:43:08;5.43;;;3.25;;
65665;SDS011;52365;47.464;18.976;2023-05-19T00:43:29;4.80;;;3.25;;
65665;SDS011;52365;47.464;18.976;2023-05-19T00:43:50;4.65;;;3.37;;
65665;SDS011;52365;47.464;18.976;2023-05-19T00:44:12;6.50;;;3.33;;
65665;SDS011;52365;47.464;18.976;2023-05-19T00:44:33;5.35;;;3.30;;
65665;SDS011;52365;47.464;18.976;2023-05-19T00:44:58;4.37;;;3.10;;
65665;SDS011;52365;47.464;18.976;2023-05-19T00:45:19;4.68;;;3.17;;
65665;SDS011;52365;47.464;18.976;2023-05-19T00:45:40;5.45;;;3.40;;
65665;SDS011;52365;47.464;18.976;2023-05-19T00:46:01;5.30;;;3.50;;
65665;SDS011;52365;47.464;18.976;2023-05-19T00:46:23;5.50;;;3.40;;
65665;SDS011;52365;47.464;18.976;2023-05-19T00:46:39;6.50;;;3.30;;
65665;SDS011;52365;47.464;18.976;2023-05-19T00:46:56;6.50;;;3.12;;
65665;SDS011;52365;47.464;18.976;2023-05-19T00:47:17;5.97;;;3.40;;
65665;SDS011;52365;47.464;18.976;2023-05-19T00:47:38;5.18;;;3.40;;
65665;SDS011;52365;47.464;18.976;2023-05-19T00:47:59;4.40;;;3.25;;
65665;SDS011;52365;47.464;18.976;2023-05-19T00:48:20;4.85;;;3.37;;
65665;SDS011;52365;47.464;18.976;2023-05-19T00:48:42;5.78;;;3.47;;
65665;SDS011;52365;47.464;18.976;2023-05-19T00:49:05;6.32;;;3.53;;
65665;SDS011;52365;47.464;18.976;2023-05-19T00:49:25;4.80;;;3.40;;
65665;SDS011;52365;47.464;18.976;2023-05-19T00:49:46;4.68;;;3.28;;
65665;SDS011;52365;47.464;18.976;2023-05-19T00:50:07;4.10;;;3.25;;
65665;SDS011;52365;47.464;18.976;2023-05-19T00:50:29;5.05;;;3.45;;
65665;SDS011;52365;47.464;18.976;2023-05-19T00:50:51;5.15;;;3.30;;
65665;SDS011;52365;47.464;18.976;2023-05-19T00:51:17;5.10;;;3.30;;
65665;SDS011;52365;47.464;18.976;2023-05-19T00:51:33;4.55;;;3.25;;
65665;SDS011;52365;47.464;18.976;2023-05-19T00:51:55;4.82;;;3.50;;
65665;SDS011;52365;47.464;18.976;2023-05-19T00:52:17;5.12;;;3.10;;
65665;SDS011;52365;47.464;18.976;2023-05-19T00:52:38;5.60;;;3.50;;
65665;SDS011;52365;47.464;18.976;2023-05-19T00:52:59;4.80;;;3.17;;
65665;SDS011;52365;47.464;18.976;2023-05-19T00:53:20;4.82;;;3.40;;
65665;SDS011;52365;47.464;18.976;2023-05-19T00:53:44;5.07;;;3.60;;
65665;SDS011;52365;47.464;18.976;2023-05-19T00:54:08;4.72;;;3.30;;
65665;SDS011;52365;47.464;18.976;2023-05-19T00:54:29;4.28;;;3.40;;
65665;SDS011;52365;47.464;18.976;2023-05-19T00:54:45;4.68;;;3.45;;
65665;SDS011;52365;47.464;18.976;2023-05-19T00:55:07;5.30;;;3.40;;
65665;SDS011;52365;47.464;18.976;2023-05-19T00:55:29;4.90;;;3.40;;
65665;SDS011;52365;47.464;18.976;2023-05-19T00:55:51;5.00;;;3.50;;
65665;SDS011;52365;47.464;18.976;2023-05-19T00:56:12;4.62;;;3.60;;
65665;SDS011;52365;47.464;18.976;2023-05-19T00:56:34;4.20;;;3.45;;
65665;SDS011;52365;47.464;18.976;2023-05-19T00:56:55;5.75;;;3.40;;
65665;SDS011;52365;47.464;18.976;2023-05-19T00:57:18;4.87;;;3.72;;
65665;SDS011;52365;47.464;18.976;2023-05-19T00:57:40;5.20;;;3.47;;
65665;SDS011;52365;47.464;18.976;2023-05-19T00:58:03;5.80;;;3.40;;
65665;SDS011;52365;47.464;18.976;2023-05-19T00:58:25;4.15;;;3.40;;
65665;SDS011;52365;47.464;18.976;2023-05-19T00:58:50;4.20;;;3.30;;
65665;SDS011;52365;47.464;18.976;2023-05-19T00:59:11;5.18;;;3.33;;
65665;SDS011;52365;47.464;18.976;2023-05-19T00:59:32;4.82;;;3.37;;
65665;SDS011;52365;47.464;18.976;2023-05-19T00:59:53;6.05;;;3.80;;
65665;SDS011;52365;47.464;18.976;2023-05-19T01:00:15;5.43;;;3.58;;
65665;SDS011;52365;47.464;18.976;2023-05-19T01:00:36;5.00;;;3.47;;
65665;SDS011;52365;47.464;18.976;2023-05-19T01:00:58;5.80;;;3.42;;
65665;SDS011;52365;47.464;18.976;2023-05-19T01:01:24;5.62;;;3.50;;
65665;SDS011;52365;47.464;18.976;2023-05-19T01:01:46;5.78;;;3.35;;
65665;SDS011;52365;47.464;18.976;2023-05-19T01:02:08;5.07;;;3.30;;
65665;SDS011;52365;47.464;18.976;2023-05-19T01:02:29;4.95;;;3.20;;
65665;SDS011;52365;47.464;18.976;2023-05-19T01:02:51;5.37;;;3.47;;
65665;SDS011;52365;47.464;18.976;2023-05-19T01:03:13;5.43;;;3.40;;
65665;SDS011;52365;47.464;18.976;2023-05-19T01:03:39;4.32;;;3.10;;
65665;SDS011;52365;47.464;18.976;2023-05-19T01:04:02;4.68;;;3.28;;
65665;SDS011;52365;47.464;18.976;2023-05-19T01:04:24;6.07;;;3.33;;
65665;SDS011;52365;47.464;18.976;2023-05-19T01:04:46;6.28;;;3.50;;
65665;SDS011;52365;47.464;18.976;2023-05-19T01:05:02;6.28;;;3.30;;
65665;SDS011;52365;47.464;18.976;2023-05-19T01:05:23;5.28;;;3.20;;
65665;SDS011;52365;47.464;18.976;2023-05-19T01:05:44;6.07;;;3.37;;
65665;SDS011;52365;47.464;18.976;2023-05-19T01:06:05;4.60;;;3.37;;
65665;SDS011;52365;47.464;18.976;2023-05-19T01:06:26;4.65;;;3.42;;
65665;SDS011;52365;47.464;18.976;2023-05-19T01:06:49;4.35;;;3.20;;
65665;SDS011;52365;47.464;18.976;2023-05-19T01:07:14;4.70;;;3.40;;
65665;SDS011;52365;47.464;18.976;2023-05-19T01:07:36;4.97;;;3.42;;
65665;SDS011;52365;47.464;18.976;2023-05-19T01:07:57;5.07;;;3.40;;
65665;SDS011;52365;47.464;18.976;2023-05-19T01:08:18;5.25;;;3.40;;
65665;SDS011;52365;47.464;18.976;2023-05-19T01:08:40;4.65;;;3.42;;
65665;SDS011;52365;47.464;18.976;2023-05-19T01:09:01;5.82;;;3.50;;
65665;SDS011;52365;47.464;18.976;2023-05-19T01:09:23;5.25;;;3.55;;
65665;SDS011;52365;47.464;18.976;2023-05-19T01:09:44;4.50;;;3.42;;
65665;SDS011;52365;47.464;18.976;2023-05-19T01:10:02;5.12;;;3.25;;
65665;SDS011;52365;47.464;18.976;2023-05-19T01:10:19;4.97;;;3.42;;
65665;SDS011;52365;47.464;18.976;2023-05-19T01:10:40;5.97;;;3.58;;
65665;SDS011;52365;47.464;18.976;2023-05-19T01:11:02;5.25;;;3.58;;
65665;SDS011;52365;47.464;18.976;2023-05-19T01:11:24;4.25;;;3.20;;
65665;SDS011;52365;47.464;18.976;2023-05-19T01:11:45;5.30;;;3.45;;
65665;SDS011;52365;47.464;18.976;2023-05-19T01:12:06;5.57;;;3.80;;
65665;SDS011;52365;47.464;18.976;2023-05-19T01:12:27;5.80;;;3.50;;
65665;SDS011;52365;47.464;18.976;2023-05-19T01:12:49;5.87;;;3.60;;
65665;SDS011;52365;47.464;18.976;2023-05-19T01:13:10;5.00;;;3.60;;
65665;SDS011;52365;47.464;18.976;2023-05-19T01:13:31;5.50;;;3.40;;
65665;SDS011;52365;47.464;18.976;2023-05-19T01:13:54;4.72;;;3.58;;
65665;SDS011;52365;47.464;18.976;2023-05-19T01:14:15;4.75;;;3.60;;
65665;SDS011;52365;47.464;18.976;2023-05-19T01:14:38;4.85;;;3.20;;
65665;SDS011;52365;47.464;18.976;2023-05-19T01:14:59;6.15;;;3.62;;
65665;SDS011;52365;47.464;18.976;2023-05-19T01:15:20;4.22;;;3.50;;
65665;SDS011;52365;47.464;18.976;2023-05-19T01:16:58;4.43;;;3.20;;
65665;SDS011;52365;47.464;18.976;2023-05-19T01:17:47;4.28;;;3.33;;
65665;SDS011;52365;47.464;18.976;2023-05-19T01:18:17;6.75;;;3.53;;
65665;SDS011;52365;47.464;18.976;2023-05-19T01:19:53;5.22;;;3.50;;
65665;SDS011;52365;47.464;18.976;2023-05-19T01:20:23;5.85;;;3.20;;
65665;SDS011;52365;47.464;18.976;2023-05-19T01:20:51;4.53;;;3.47;;
65665;SDS011;52365;47.464;18.976;2023-05-19T01:21:39;4.47;;;3.35;;
65665;SDS011;52365;47.464;18.976;2023-05-19T01:23:07;5.47;;;3.30;;
65665;SDS011;52365;47.464;18.976;2023-05-19T01:23:52;4.53;;;3.10;;
65665;SDS011;52365;47.464;18.976;2023-05-19T01:24:51;6.82;;;3.28;;
65665;SDS011;52365;47.464;18.976;2023-05-19T01:27:08;4.12;;;3.35;;
65665;SDS011;52365;47.464;18.976;2023-05-19T01:29:15;6.78;;;3.70;;
65665;SDS011;52365;47.464;18.976;2023-05-19T01:29:55;5.57;;;3.58;;
65665;SDS011;52365;47.464;18.976;2023-05-19T01:30:36;5.62;;;3.58;;
65665;SDS011;52365;47.464;18.976;2023-05-19T01:30:58;6.65;;;3.80;;
65665;SDS011;52365;47.464;18.976;2023-05-19T01:31:15;6.12;;;3.62;;
65665;SDS011;52365;47.464;18.976;2023-05-19T01:31:41;5.20;;;3.47;;
65665;SDS011;52365;47.464;18.976;2023-05-19T01:32:04;5.95;;;3.80;;
65665;SDS011;52365;47.464;18.976;2023-05-19T01:32:27;5.70;;;3.65;;
65665;SDS011;52365;47.464;18.976;2023-05-19T01:32:51;4.90;;;3.53;;
65665;SDS011;52365;47.464;18.976;2023-05-19T01:33:14;5.60;;;3.67;;
65665;SDS011;52365;47.464;18.976;2023-05-19T01:33:39;5.03;;;3.67;;
65665;SDS011;52365;47.464;18.976;2023-05-19T01:34:03;4.12;;;3.60;;
65665;SDS011;52365;47.464;18.976;2023-05-19T01:34:25;5.75;;;3.47;;
65665;SDS011;52365;47.464;18.976;2023-05-19T01:34:47;6.70;;;3.47;;
65665;SDS011;52365;47.464;18.976;2023-05-19T01:35:10;4.80;;;3.53;;
65665;SDS011;52365;47.464;18.976;2023-05-19T01:35:35;5.05;;;3.62;;
65665;SDS011;52365;47.464;18.976;2023-05-19T01:35:57;5.32;;;3.70;;
65665;SDS011;52365;47.464;18.976;2023-05-19T01:36:22;5.57;;;3.45;;
65665;SDS011;52365;47.464;18.976;2023-05-19T01:36:46;6.07;;;3.53;;
65665;SDS011;52365;47.464;18.976;2023-05-19T01:37:10;5.12;;;3.60;;
65665;SDS011;52365;47.464;18.976;2023-05-19T01:37:33;4.80;;;3.70;;
65665;SDS011;52365;47.464;18.976;2023-05-19T01:37:56;5.65;;;4.05;;
65665;SDS011;52365;47.464;18.976;2023-05-19T01:38:18;5.97;;;3.70;;
65665;SDS011;52365;47.464;18.976;2023-05-19T01:38:40;6.18;;;3.80;;
65665;SDS011;52365;47.464;18.976;2023-05-19T01:39:02;4.40;;;3.60;;
65665;SDS011;52365;47.464;18.976;2023-05-19T01:39:24;5.60;;;3.70;;
65665;SDS011;52365;47.464;18.976;2023-05-19T01:39:45;7.70;;;4.10;;
65665;SDS011;52365;47.464;18.976;2023-05-19T01:40:08;4.93;;;3.60;;
65665;SDS011;52365;47.464;18.976;2023-05-19T01:40:29;5.28;;;3.75;;
65665;SDS011;52365;47.464;18.976;2023-05-19T01:40:52;4.72;;;3.47;;
65665;SDS011;52365;47.464;18.976;2023-05-19T01:41:15;4.60;;;3.67;;
65665;SDS011;52365;47.464;18.976;2023-05-19T01:41:40;6.20;;;3.80;;
65665;SDS011;52365;47.464;18.976;2023-05-19T01:42:03;4.50;;;3.67;;
65665;SDS011;52365;47.464;18.976;2023-05-19T01:42:25;5.93;;;3.55;;
65665;SDS011;52365;47.464;18.976;2023-05-19T01:42:47;5.65;;;3.80;;
65665;SDS011;52365;47.464;18.976;2023-05-19T01:43:05;5.22;;;3.72;;
65665;SDS011;52365;47.464;18.976;2023-05-19T01:43:28;5.00;;;3.60;;
65665;SDS011;52365;47.464;18.976;2023-05-19T01:43:50;4.68;;;3.47;;
65665;SDS011;52365;47.464;18.976;2023-05-19T01:44:13;6.07;;;3.35;;
65665;SDS011;52365;47.464;18.976;2023-05-19T01:44:35;5.43;;;3.10;;
65665;SDS011;52365;47.464;18.976;2023-05-19T01:44:57;5.68;;;3.35;;
65665;SDS011;52365;47.464;18.976;2023-05-19T01:45:19;5.03;;;3.30;;
65665;SDS011;52365;47.464;18.976;2023-05-19T01:45:41;6.30;;;3.40;;
65665;SDS011;52365;47.464;18.976;2023-05-19T01:46:02;4.43;;;3.42;;
65665;SDS011;52365;47.464;18.976;2023-05-19T01:46:23;5.07;;;3.40;;
65665;SDS011;52365;47.464;18.976;2023-05-19T01:46:45;5.12;;;3.40;;
65665;SDS011;52365;47.464;18.976;2023-05-19T01:47:06;4.72;;;3.55;;
65665;SDS011;52365;47.464;18.976;2023-05-19T01:47:29;5.80;;;3.65;;
65665;SDS011;52365;47.464;18.976;2023-05-19T01:47:54;6.50;;;3.50;;
65665;SDS011;52365;47.464;18.976;2023-05-19T01:48:18;5.00;;;3.33;;
65665;SDS011;52365;47.464;18.976;2023-05-19T01:48:39;6.37;;;3.53;;
65665;SDS011;52365;47.464;18.976;2023-05-19T01:49:02;5.25;;;3.28;;
65665;SDS011;52365;47.464;18.976;2023-05-19T01:49:24;4.50;;;3.33;;
65665;SDS011;52365;47.464;18.976;2023-05-19T01:49:45;4.80;;;3.10;;
65665;SDS011;52365;47.464;18.976;2023-05-19T01:50:06;5.95;;;3.33;;
65665;SDS011;52365;47.464;18.976;2023-05-19T01:50:27;5.55;;;3.33;;
65665;SDS011;52365;47.464;18.976;2023-05-19T01:50:49;5.68;;;3.50;;
65665;SDS011;52365;47.464;18.976;2023-05-19T01:51:10;5.87;;;3.50;;
65665;SDS011;52365;47.464;18.976;2023-05-19T01:51:31;5.12;;;3.40;;
65665;SDS011;52365;47.464;18.976;2023-05-19T01:51:52;5.10;;;3.35;;
65665;SDS011;52365;47.464;18.976;2023-05-19T01:52:13;5.53;;;3.30;;
65665;SDS011;52365;47.464;18.976;2023-05-19T01:52:34;5.70;;;3.50;;
65665;SDS011;52365;47.464;18.976;2023-05-19T01:52:55;6.10;;;3.85;;
65665;SDS011;52365;47.464;18.976;2023-05-19T01:53:16;5.82;;;3.40;;
65665;SDS011;52365;47.464;18.976;2023-05-19T01:53:37;4.95;;;3.37;;
65665;SDS011;52365;47.464;18.976;2023-05-19T01:53:59;4.35;;;3.28;;
65665;SDS011;52365;47.464;18.976;2023-05-19T01:54:20;4.68;;;3.22;;
65665;SDS011;52365;47.464;18.976;2023-05-19T01:54:41;5.65;;;3.40;;
65665;SDS011;52365;47.464;18.976;2023-05-19T01:55:02;6.35;;;3.40;;
65665;SDS011;52365;47.464;18.976;2023-05-19T01:55:23;4.55;;;3.60;;
65665;SDS011;52365;47.464;18.976;2023-05-19T01:55:45;5.57;;;3.62;;
65665;SDS011;52365;47.464;18.976;2023-05-19T01:56:09;6.47;;;3.50;;
65665;SDS011;52365;47.464;18.976;2023-05-19T01:56:37;6.20;;;3.55;;
65665;SDS011;52365;47.464;18.976;2023-05-19T01:58:46;5.07;;;3.70;;
65665;SDS011;52365;47.464;18.976;2023-05-19T01:59:20;5.20;;;3.72;;
65665;SDS011;52365;47.464;18.976;2023-05-19T01:59:56;8.63;;;3.80;;
65665;SDS011;52365;47.464;18.976;2023-05-19T02:01:00;4.28;;;3.50;;
65665;SDS011;52365;47.464;18.976;2023-05-19T02:01:38;5.32;;;3.80;;
65665;SDS011;52365;47.464;18.976;2023-05-19T02:02:08;6.07;;;3.90;;
65665;SDS011;52365;47.464;18.976;2023-05-19T02:03:44;6.10;;;3.50;;
65665;SDS011;52365;47.464;18.976;2023-05-19T02:05:08;5.65;;;3.80;;
65665;SDS011;52365;47.464;18.976;2023-05-19T02:07:12;4.20;;;3.35;;
65665;SDS011;52365;47.464;18.976;2023-05-19T02:07:38;3.97;;;3.50;;
65665;SDS011;52365;47.464;18.976;2023-05-19T02:08:14;4.68;;;3.50;;
65665;SDS011;52365;47.464;18.976;2023-05-19T02:10:29;4.32;;;3.70;;
65665;SDS011;52365;47.464;18.976;2023-05-19T02:10:54;4.87;;;3.60;;
65665;SDS011;52365;47.464;18.976;2023-05-19T02:11:26;6.05;;;4.05;;
65665;SDS011;52365;47.464;18.976;2023-05-19T02:11:59;6.62;;;3.80;;
65665;SDS011;52365;47.464;18.976;2023-05-19T02:12:30;5.80;;;3.97;;
65665;SDS011;52365;47.464;18.976;2023-05-19T02:12:54;4.80;;;3.70;;
65665;SDS011;52365;47.464;18.976;2023-05-19T02:13:19;5.85;;;4.18;;
65665;SDS011;52365;47.464;18.976;2023-05-19T02:13:43;6.93;;;4.28;;
65665;SDS011;52365;47.464;18.976;2023-05-19T02:14:59;5.30;;;4.15;;
65665;SDS011;52365;47.464;18.976;2023-05-19T02:15:41;5.95;;;4.05;;
65665;SDS011;52365;47.464;18.976;2023-05-19T02:16:04;6.75;;;4.03;;
65665;SDS011;52365;47.464;18.976;2023-05-19T02:16:26;7.30;;;4.00;;
65665;SDS011;52365;47.464;18.976;2023-05-19T02:16:48;7.57;;;3.85;;
65665;SDS011;52365;47.464;18.976;2023-05-19T02:17:11;5.22;;;3.80;;
65665;SDS011;52365;47.464;18.976;2023-05-19T02:17:37;5.67;;;3.97;;
65665;SDS011;52365;47.464;18.976;2023-05-19T02:18:01;4.97;;;3.78;;
65665;SDS011;52365;47.464;18.976;2023-05-19T02:18:24;5.78;;;4.00;;
65665;SDS011;52365;47.464;18.976;2023-05-19T02:18:45;5.22;;;4.00;;
65665;SDS011;52365;47.464;18.976;2023-05-19T02:19:18;5.95;;;4.05;;
65665;SDS011;52365;47.464;18.976;2023-05-19T02:19:43;5.90;;;3.80;;
65665;SDS011;52365;47.464;18.976;2023-05-19T02:20:05;5.43;;;3.80;;
65665;SDS011;52365;47.464;18.976;2023-05-19T02:20:28;5.03;;;4.00;;
65665;SDS011;52365;47.464;18.976;2023-05-19T02:20:49;6.50;;;4.00;;
65665;SDS011;52365;47.464;18.976;2023-05-19T02:21:10;6.15;;;3.80;;
65665;SDS011;52365;47.464;18.976;2023-05-19T02:21:33;5.32;;;4.03;;
65665;SDS011;52365;47.464;18.976;2023-05-19T02:21:54;4.62;;;3.95;;
65665;SDS011;52365;47.464;18.976;2023-05-19T02:22:15;5.03;;;4.00;;
65665;SDS011;52365;47.464;18.976;2023-05-19T02:22:36;5.90;;;4.03;;
65665;SDS011;52365;47.464;18.976;2023-05-19T02:22:57;5.30;;;4.20;;
65665;SDS011;52365;47.464;18.976;2023-05-19T02:23:18;5.80;;;4.25;;
65665;SDS011;52365;47.464;18.976;2023-05-19T02:23:39;6.40;;;4.30;;
65665;SDS011;52365;47.464;18.976;2023-05-19T02:24:01;6.12;;;4.10;;
65665;SDS011;52365;47.464;18.976;2023-05-19T02:24:22;4.62;;;4.00;;
65665;SDS011;52365;47.464;18.976;2023-05-19T02:24:44;4.35;;;3.70;;
65665;SDS011;52365;47.464;18.976;2023-05-19T02:25:06;5.20;;;3.83;;
65665;SDS011;52365;47.464;18.976;2023-05-19T02:25:28;7.05;;;4.10;;
65665;SDS011;52365;47.464;18.976;2023-05-19T02:25:49;7.30;;;4.25;;
65665;SDS011;52365;47.464;18.976;2023-05-19T02:26:11;7.43;;;4.10;;
65665;SDS011;52365;47.464;18.976;2023-05-19T02:26:32;5.18;;;4.00;;
65665;SDS011;52365;47.464;18.976;2023-05-19T02:26:53;6.40;;;4.20;;
65665;SDS011;52365;47.464;18.976;2023-05-19T02:27:14;5.15;;;4.00;;
65665;SDS011;52365;47.464;18.976;2023-05-19T02:27:35;5.22;;;4.00;;
65665;SDS011;52365;47.464;18.976;2023-05-19T02:27:57;8.32;;;4.07;;
65665;SDS011;52365;47.464;18.976;2023-05-19T02:28:19;9.38;;;4.40;;
65665;SDS011;52365;47.464;18.976;2023-05-19T02:28:40;6.85;;;4.18;;
65665;SDS011;52365;47.464;18.976;2023-05-19T02:29:01;5.20;;;4.32;;
65665;SDS011;52365;47.464;18.976;2023-05-19T02:29:21;5.50;;;4.28;;
65665;SDS011;52365;47.464;18.976;2023-05-19T02:29:43;5.35;;;4.20;;
65665;SDS011;52365;47.464;18.976;2023-05-19T02:30:04;5.28;;;4.00;;
65665;SDS011;52365;47.464;18.976;2023-05-19T02:30:26;5.95;;;4.30;;